createdAt,value
2022-10-17T00:05:12.123Z,99106.94
2022-10-17T00:10:33.914Z,99102.41
2022-10-17T00:15:55.741Z,99102.22
2022-10-17T00:21:19.057Z,99112.88
2022-10-17T00:26:40.914Z,99117.72
2022-10-17T00:32:02.627Z,99116.16
2022-10-17T00:37:24.403Z,99124.34
2022-10-17T00:42:46.206Z,99125.03
2022-10-17T00:48:11.085Z,99123.06
2022-10-17T00:53:33.717Z,99127.03
2022-10-17T00:58:55.915Z,99122.75
2022-10-17T01:04:19.026Z,99126.00
2022-10-17T01:09:42.694Z,99128.72
2022-10-17T01:15:25.708Z,99132.00
2022-10-17T01:21:08.501Z,99131.34
2022-10-17T01:26:36.258Z,99122.88
2022-10-17T01:32:16.191Z,99123.81
2022-10-17T01:37:50.368Z,99122.66
2022-10-17T01:43:22.973Z,99125.69
2022-10-17T01:48:46.449Z,99120.31
2022-10-17T01:54:11.066Z,99119.66
2022-10-17T01:59:40.925Z,99109.44
2022-10-17T02:05:04.491Z,99108.06
2022-10-17T02:10:57.351Z,99108.47
2022-10-17T02:16:31.265Z,99110.66
2022-10-17T02:22:04.237Z,99103.72
2022-10-17T02:27:56.732Z,99105.16
2022-10-17T02:33:32.675Z,99111.00
2022-10-17T02:38:55.506Z,99113.25
2022-10-17T02:44:17.917Z,99115.78
2022-10-17T02:49:43.779Z,99122.81
2022-10-17T02:55:19.336Z,99113.75
2022-10-17T03:00:41.914Z,99127.31
2022-10-17T03:06:03.728Z,99116.72
2022-10-17T03:11:25.459Z,99121.19
2022-10-17T03:16:47.363Z,99119.94
2022-10-17T03:22:09.068Z,99126.66
2022-10-17T03:27:31.125Z,99132.31
2022-10-17T03:32:53.244Z,99138.47
2022-10-17T03:38:14.961Z,99138.69
2022-10-17T03:43:36.714Z,99142.06
2022-10-17T03:48:58.491Z,99143.63
2022-10-17T03:54:20.205Z,99144.97
2022-10-17T03:59:41.921Z,99153.50
2022-10-17T04:05:03.877Z,99150.03
2022-10-17T04:10:25.632Z,99156.47
2022-10-17T04:15:58.372Z,99156.03
2022-10-17T04:21:20.110Z,99160.56
2022-10-17T04:26:41.838Z,99168.63
2022-10-17T04:32:04.054Z,99173.97
2022-10-17T04:37:25.742Z,99177.47
2022-10-17T04:42:47.576Z,99180.88
2022-10-17T04:48:09.347Z,99189.91
2022-10-17T04:53:33.344Z,99180.72
2022-10-17T04:58:55.085Z,99181.38
2022-10-17T05:04:19.888Z,99181.19
2022-10-17T05:09:44.482Z,99193.16
2022-10-17T05:15:06.891Z,99188.72
2022-10-17T05:20:28.738Z,99186.94
2022-10-17T05:25:56.642Z,99185.97
2022-10-17T05:31:18.824Z,99181.19
2022-10-17T05:36:40.565Z,99184.66
2022-10-17T05:42:02.416Z,99193.78
2022-10-17T05:47:24.157Z,99198.41
2022-10-17T05:52:47.167Z,99192.41
2022-10-17T05:58:11.707Z,99194.63
2022-10-17T06:03:39.593Z,99206.41
2022-10-17T06:09:01.362Z,99218.09
2022-10-17T06:14:23.163Z,99206.56
2022-10-17T06:19:45.202Z,99221.31
2022-10-17T06:25:07.444Z,99216.69
2022-10-17T06:30:29.200Z,99205.13
2022-10-17T06:35:55.132Z,99215.84
2022-10-17T06:41:19.269Z,99228.06
2022-10-17T06:46:41.034Z,99230.31
2022-10-17T06:52:02.778Z,99248.81
2022-10-17T06:57:24.540Z,99266.94
2022-10-17T07:02:46.226Z,99270.25
2022-10-17T07:08:08.667Z,99276.34
2022-10-17T07:13:30.395Z,99278.13
2022-10-17T07:18:52.635Z,99271.06
2022-10-17T07:24:14.547Z,99288.41
2022-10-17T07:29:36.431Z,99280.53
2022-10-17T07:34:58.131Z,99284.47
2022-10-17T07:40:19.933Z,99292.59
2022-10-17T07:45:41.843Z,99288.94
2022-10-17T07:51:05.399Z,99301.25
2022-10-17T07:56:27.134Z,99295.94
2022-10-17T08:01:48.923Z,99301.13
2022-10-17T08:07:20.021Z,99298.56
2022-10-17T08:12:44.881Z,99300.47
2022-10-17T08:18:06.608Z,99305.44
2022-10-17T08:23:28.739Z,99294.38
2022-10-17T08:28:50.476Z,99306.00
2022-10-17T08:34:12.277Z,99297.56
2022-10-17T08:39:33.961Z,99297.03
2022-10-17T08:45:16.941Z,99303.28
2022-10-17T08:50:48.493Z,99306.44
2022-10-17T08:56:25.002Z,99314.03
2022-10-17T09:02:27.179Z,99318.38
2022-10-17T09:07:54.053Z,99315.13
2022-10-17T09:13:31.731Z,99302.97
2022-10-17T09:19:22.805Z,99302.31
2022-10-17T09:24:51.189Z,99302.56
2022-10-17T09:30:46.212Z,99299.34
2022-10-17T09:36:13.646Z,99303.03
2022-10-17T09:41:46.625Z,99300.56
2022-10-17T09:47:38.102Z,99294.75
2022-10-17T09:53:30.750Z,99298.41
2022-10-17T09:58:57.289Z,99296.06
2022-10-17T10:04:19.029Z,99300.69
2022-10-17T10:09:46.961Z,99296.41
2022-10-17T10:15:32.209Z,99299.22
2022-10-17T10:21:07.692Z,99298.44
2022-10-17T10:26:40.034Z,99298.88
2022-10-17T10:32:08.176Z,99302.38
2022-10-17T10:37:38.213Z,99312.50
2022-10-17T10:43:05.183Z,99314.19
2022-10-17T10:48:34.375Z,99305.06
2022-10-17T10:54:05.205Z,99311.63
2022-10-17T10:59:56.508Z,99300.22
2022-10-17T11:05:35.590Z,99308.13
2022-10-17T11:11:19.399Z,99305.13
2022-10-17T11:17:01.020Z,99300.16
2022-10-17T11:22:31.139Z,99297.16
2022-10-17T11:27:53.049Z,99294.13
2022-10-17T11:33:27.627Z,99283.97
2022-10-17T11:39:01.710Z,99288.28
2022-10-17T11:44:38.622Z,99278.78
2022-10-17T11:56:02.124Z,99270.63
2022-10-17T12:01:44.546Z,99266.38
2022-10-17T12:07:17.934Z,99267.88
2022-10-17T12:12:40.546Z,99269.19
2022-10-17T12:18:03.922Z,99275.22
2022-10-17T12:23:32.514Z,99266.31
2022-10-17T12:28:55.456Z,99262.97
2022-10-17T12:34:21.574Z,99261.97
2022-10-17T12:39:43.310Z,99261.88
2022-10-17T12:45:43.942Z,99264.41
2022-10-17T12:56:52.867Z,99270.28
2022-10-17T13:02:23.776Z,99274.88
2022-10-17T13:07:48.384Z,99269.44
2022-10-17T13:13:19.053Z,99280.38
2022-10-17T13:18:40.829Z,99285.69
2022-10-17T13:24:23.644Z,99303.75
2022-10-17T13:29:45.398Z,99308.38
2022-10-17T13:35:22.059Z,99307.09
2022-10-17T13:40:50.470Z,99316.34
2022-10-17T13:46:38.407Z,99327.53
2022-10-17T13:52:03.777Z,99320.94
2022-10-17T13:57:30.374Z,99324.44
2022-10-17T14:02:52.235Z,99327.22
2022-10-17T14:08:22.803Z,99326.09
2022-10-17T14:13:49.396Z,99334.34
2022-10-17T14:19:33.197Z,99326.81
2022-10-17T14:24:59.040Z,99331.16
2022-10-17T14:30:51.565Z,99334.38
2022-10-17T14:36:08.055Z,99334.25
2022-10-17T14:41:43.530Z,99334.94
2022-10-17T14:47:38.053Z,99338.03
2022-10-17T14:53:12.689Z,99335.97
2022-10-17T14:58:34.805Z,99339.75
2022-10-17T15:03:56.488Z,99343.09
2022-10-17T15:09:18.169Z,99344.44
2022-10-17T15:14:39.879Z,99352.97
2022-10-17T15:20:01.623Z,99356.16
2022-10-17T15:25:24.706Z,99355.44
2022-10-17T15:30:46.481Z,99355.00
2022-10-17T15:36:38.882Z,99353.97
2022-10-17T15:42:00.647Z,99345.28
2022-10-17T15:47:33.880Z,99351.03
2022-10-17T15:52:56.259Z,99347.06
2022-10-17T15:58:18.871Z,99345.78
2022-10-17T16:03:40.642Z,99360.56
2022-10-17T16:09:02.445Z,99370.03
2022-10-17T16:14:24.152Z,99380.03
2022-10-17T16:19:45.889Z,99382.25
2022-10-17T16:25:19.322Z,99385.91
2022-10-17T16:30:44.470Z,99396.56
2022-10-17T16:36:07.228Z,99405.13
2022-10-17T16:41:31.701Z,99402.75
2022-10-17T16:46:53.433Z,99410.25
2022-10-17T16:52:15.231Z,99406.41
2022-10-17T16:57:37.062Z,99417.25
2022-10-17T17:02:58.790Z,99428.63
2022-10-17T17:08:20.582Z,99438.28
2022-10-17T17:13:42.369Z,99432.75
2022-10-17T17:19:06.931Z,99430.59
2022-10-17T17:24:29.353Z,99440.25
2022-10-17T17:29:51.099Z,99452.63
2022-10-17T17:35:12.838Z,99452.25
2022-10-17T17:40:34.695Z,99455.25
2022-10-17T17:45:56.404Z,99455.38
2022-10-17T17:51:21.148Z,99452.34
2022-10-17T17:56:44.208Z,99458.59
2022-10-17T18:02:06.757Z,99470.00
2022-10-17T18:07:28.585Z,99473.34
2022-10-17T18:12:50.277Z,99470.69
2022-10-17T18:18:12.271Z,99479.22
2022-10-17T18:23:38.673Z,99487.72
2022-10-17T18:29:00.479Z,99491.56
2022-10-17T18:34:22.207Z,99492.94
2022-10-17T18:39:44.929Z,99489.78
2022-10-17T18:45:07.448Z,99498.81
2022-10-17T18:50:29.178Z,99501.06
2022-10-17T18:55:51.290Z,99505.44
2022-10-17T19:01:16.129Z,99509.25
2022-10-17T19:06:37.912Z,99504.53
2022-10-17T19:12:00.189Z,99506.75
2022-10-17T19:17:21.890Z,99512.66
2022-10-17T19:22:43.673Z,99515.31
2022-10-17T19:28:05.461Z,99511.66
2022-10-17T19:38:53.532Z,99509.81
2022-10-17T19:44:16.095Z,99516.84
2022-10-17T19:49:37.965Z,99518.66
2022-10-17T19:54:59.782Z,99512.13
2022-10-17T20:00:21.513Z,99508.84
2022-10-17T20:05:43.211Z,99501.13
2022-10-17T20:11:11.746Z,99506.13
2022-10-17T20:16:35.322Z,99506.44
2022-10-17T20:21:57.045Z,99505.56
2022-10-17T20:27:18.934Z,99506.88
2022-10-17T20:32:40.663Z,99513.50
2022-10-17T20:38:02.386Z,99512.09
2022-10-17T20:43:24.168Z,99517.63
2022-10-17T20:48:46.007Z,99522.28
2022-10-17T20:54:07.955Z,99532.28
2022-10-17T20:59:29.892Z,99530.50
2022-10-17T21:04:51.695Z,99533.25
2022-10-17T21:10:34.253Z,99535.16
2022-10-17T21:15:55.108Z,99532.50
2022-10-17T21:21:36.997Z,99533.66
2022-10-17T21:26:58.831Z,99533.44
2022-10-17T21:32:33.346Z,99537.03
2022-10-17T21:38:02.941Z,99540.41
2022-10-17T21:43:24.654Z,99549.38
2022-10-17T21:48:47.570Z,99553.91
2022-10-17T21:54:09.310Z,99538.59
2022-10-17T21:59:31.865Z,99543.94
2022-10-17T22:04:53.632Z,99534.69
2022-10-17T22:10:15.435Z,99527.50
2022-10-17T22:15:37.194Z,99534.69
2022-10-17T22:21:03.872Z,99533.94
2022-10-17T22:26:27.677Z,99529.84
2022-10-17T22:31:49.517Z,99517.25
2022-10-17T22:37:11.197Z,99522.53
2022-10-17T22:42:34.487Z,99511.09
2022-10-17T22:47:56.952Z,99508.38
2022-10-17T22:53:23.984Z,99513.34
2022-10-17T22:58:46.483Z,99506.56
2022-10-17T23:04:08.155Z,99503.50
2022-10-17T23:09:29.895Z,99497.50
2022-10-17T23:14:51.652Z,99500.84
2022-10-17T23:20:13.359Z,99496.00
2022-10-17T23:25:35.093Z,99493.66
2022-10-17T23:30:56.962Z,99486.91
2022-10-17T23:36:20.436Z,99479.81
2022-10-17T23:41:42.195Z,99479.72
2022-10-17T23:47:03.999Z,99481.63
2022-10-17T23:52:25.682Z,99476.44
2022-10-17T23:57:47.379Z,99471.81
